If you wish to contribute or participate in the discussions about articles you are invited to join SKYbrary as a registered user

 Actions

Santorini/Thira Airport

From SKYbrary Wiki

LGSR
Airport
ICAO: LGSR – IATA: JTR
Summary
Name Santorini/Thira Airport
Region Europe
Territory Greece GR.gif
Location Kamari, Santorini
Serving Thira, Santorini
Elevation 38.71 m
127 ft
127 ft38.71 m
Coordinates 36° 24' 6.00" N, 25° 28' 42.00" E
Runways
Designator Length Width Surface ROPS
16L/34R 2125 m6,971.785 ft
30 m98.425 ft
ASP yes/yes
16R/34L 0 m0 ft
0 m0 ft
UNK yes/yes


METAR
Observation LGSR 241520Z 34012KT CAVOK 29/20 Q1011
Station Santorini Island
Date/Time 24 August 2019 15:20:00
Wind direction 340°
Wind speed 12 kts
Lowest cloud amount clouds and visibility OK
Temperature 29°C
Dew point 20°C
Humidity 58%
QNH 1011 hPa
Weather condition n/a

CFIT
Tag(s) Runway Visual Perspective
WX
Tag(s) Low Level Turbulence

Santorini/Thira Airport

ICAO: LGSR IATA: JTR

Description

International airport on the island of Santorini, Greece.

Climatology

Mediterranean climate (Köppen climate classification Csa) - Hot, dry summer and a mild wet winter.

Maps

Terrain

Loading map...

Airport Layout

Loading map...


Accidents & Serious Incidents at or in vicinity of LGSR

None on SKYbrary